createdAt,value
2022-09-09T00:00:15.265Z,8.13
2022-09-09T00:02:45.534Z,9.33
2022-09-09T00:05:17.037Z,10.87
2022-09-09T00:07:46.491Z,9.77
2022-09-09T00:10:17.883Z,11.13
2022-09-09T00:12:47.364Z,11.30
2022-09-09T00:15:16.714Z,10.93
2022-09-09T00:17:48.627Z,9.70
2022-09-09T00:20:17.571Z,14.03
2022-09-09T00:22:48.374Z,9.73
2022-09-09T00:25:18.108Z,10.20
2022-09-09T00:27:48.143Z,10.03
2022-09-09T00:30:19.691Z,13.47
2022-09-09T00:32:49.673Z,10.80
2022-09-09T00:35:20.144Z,12.33
2022-09-09T00:37:49.989Z,10.23
2022-09-09T00:40:22.654Z,9.33
2022-09-09T00:42:51.283Z,14.07
2022-09-09T00:45:22.386Z,11.90
2022-09-09T00:47:52.795Z,10.50
2022-09-09T00:50:39.088Z,8.37
2022-09-09T00:53:14.216Z,11.50
2022-09-09T00:55:43.944Z,10.80
2022-09-09T00:58:12.452Z,9.70
2022-09-09T01:00:42.807Z,10.57
2022-09-09T01:03:25.526Z,12.27
2022-09-09T01:05:56.983Z,10.33
2022-09-09T01:08:31.162Z,9.20
2022-09-09T01:10:59.543Z,9.50
2022-09-09T01:13:31.224Z,10.20
2022-09-09T01:16:02.062Z,9.23
2022-09-09T01:18:32.276Z,9.23
2022-09-09T01:21:03.947Z,7.57
2022-09-09T01:23:45.105Z,7.73
2022-09-09T01:26:19.440Z,7.83
2022-09-09T01:28:48.565Z,9.57
2022-09-09T01:31:18.218Z,11.37
2022-09-09T01:33:46.556Z,8.13
2022-09-09T01:36:15.714Z,8.17
2022-09-09T01:38:44.145Z,10.43
2022-09-09T01:41:12.587Z,7.03
2022-09-09T01:43:42.347Z,12.00
2022-09-09T01:46:10.887Z,7.63
2022-09-09T01:48:39.375Z,8.43
2022-09-09T01:51:07.913Z,6.87
2022-09-09T01:53:36.267Z,12.10
2022-09-09T01:56:07.760Z,8.43
2022-09-09T01:58:37.402Z,7.10
2022-09-09T02:01:08.762Z,13.00
2022-09-09T02:03:37.186Z,4.97
2022-09-09T02:06:08.331Z,4.67
2022-09-09T02:08:39.100Z,4.57
2022-09-09T02:11:08.601Z,4.93
2022-09-09T02:13:37.756Z,5.20
2022-09-09T02:16:06.758Z,5.03
2022-09-09T02:18:37.876Z,5.00
2022-09-09T02:21:06.273Z,7.20
2022-09-09T02:23:34.572Z,6.43
2022-09-09T02:26:05.156Z,5.70
2022-09-09T02:28:33.641Z,5.90
2022-09-09T02:31:02.271Z,4.60
2022-09-09T02:33:31.529Z,6.73
2022-09-09T02:36:04.502Z,5.10
2022-09-09T02:38:34.066Z,9.17
2022-09-09T02:41:03.020Z,4.37
2022-09-09T02:43:33.855Z,3.60
2022-09-09T02:46:04.765Z,6.53
2022-09-09T02:48:33.796Z,3.90
2022-09-09T02:51:06.029Z,6.63
2022-09-09T02:53:34.897Z,5.43
2022-09-09T02:56:04.069Z,5.83
2022-09-09T02:58:32.820Z,7.17
2022-09-09T03:01:02.242Z,8.47
2022-09-09T03:03:31.366Z,5.90
2022-09-09T03:06:00.103Z,5.50
2022-09-09T03:08:29.976Z,7.60
2022-09-09T03:10:58.652Z,8.17
2022-09-09T03:13:26.961Z,5.10
2022-09-09T03:15:55.307Z,5.67
2022-09-09T03:18:24.072Z,6.17
2022-09-09T03:20:55.063Z,6.20
2022-09-09T03:23:23.938Z,7.53
2022-09-09T03:25:55.754Z,5.13
2022-09-09T03:28:24.245Z,4.53
2022-09-09T03:30:53.026Z,6.77
2022-09-09T03:33:21.325Z,7.53
2022-09-09T03:35:49.787Z,7.57
2022-09-09T03:38:18.160Z,5.37
2022-09-09T03:40:52.168Z,8.40
2022-09-09T03:43:22.273Z,10.33
2022-09-09T03:45:50.786Z,5.93
2022-09-09T03:48:19.545Z,6.83
2022-09-09T03:50:47.927Z,5.73
2022-09-09T03:53:16.813Z,5.33
2022-09-09T03:55:46.579Z,6.33
2022-09-09T03:58:15.020Z,8.67
2022-09-09T04:00:46.177Z,7.97
2022-09-09T04:03:14.652Z,6.47
2022-09-09T04:05:43.414Z,6.73
2022-09-09T04:08:12.438Z,7.43
2022-09-09T04:10:40.853Z,8.40
2022-09-09T04:13:09.181Z,9.67
2022-09-09T04:15:37.662Z,6.73
2022-09-09T04:18:07.574Z,5.70
2022-09-09T04:20:36.493Z,5.50
2022-09-09T04:23:05.432Z,4.53
2022-09-09T04:25:34.868Z,7.73
2022-09-09T04:28:03.746Z,5.17
2022-09-09T04:30:32.903Z,10.90
2022-09-09T04:33:01.327Z,7.80
2022-09-09T04:35:30.984Z,6.47
2022-09-09T04:37:59.399Z,9.83
2022-09-09T04:40:27.738Z,6.73
2022-09-09T04:42:56.145Z,7.60
2022-09-09T04:45:24.506Z,7.33
2022-09-09T04:47:52.997Z,8.57
2022-09-09T04:50:21.352Z,6.53
2022-09-09T04:52:51.173Z,5.10
2022-09-09T04:55:19.636Z,7.00
2022-09-09T04:57:48.052Z,7.07
2022-09-09T05:00:18.072Z,6.90
2022-09-09T05:02:46.530Z,7.87
2022-09-09T05:05:14.911Z,7.50
2022-09-09T05:07:43.232Z,6.17
2022-09-09T05:10:15.119Z,8.57
2022-09-09T05:12:43.453Z,8.00
2022-09-09T05:15:12.815Z,9.40
2022-09-09T05:17:41.306Z,12.67
2022-09-09T05:20:11.895Z,9.37
2022-09-09T05:22:42.906Z,7.20
2022-09-09T05:25:12.589Z,11.87
2022-09-09T05:27:40.944Z,8.07
2022-09-09T05:30:09.908Z,12.73
2022-09-09T05:32:38.254Z,8.30
2022-09-09T05:35:07.085Z,7.63
2022-09-09T05:37:35.996Z,8.17
2022-09-09T05:40:04.846Z,8.97
2022-09-09T05:42:34.978Z,14.00
2022-09-09T05:45:03.534Z,6.73
2022-09-09T05:47:31.955Z,8.57
2022-09-09T05:50:00.337Z,8.03
2022-09-09T05:52:28.668Z,10.70
2022-09-09T05:54:58.023Z,8.43
2022-09-09T05:57:26.563Z,10.37
2022-09-09T05:59:56.334Z,11.47
2022-09-09T06:02:24.747Z,6.97
2022-09-09T06:04:54.261Z,9.53
2022-09-09T06:07:23.989Z,9.37
2022-09-09T06:09:52.606Z,9.83
2022-09-09T06:12:21.898Z,8.90
2022-09-09T06:14:51.866Z,7.83
2022-09-09T06:17:21.765Z,10.10
2022-09-09T06:19:50.143Z,13.23
2022-09-09T06:22:18.632Z,10.13
2022-09-09T06:24:46.980Z,11.00
2022-09-09T06:27:15.609Z,11.50
2022-09-09T06:29:43.925Z,11.23
2022-09-09T06:32:12.238Z,8.63
2022-09-09T06:34:42.018Z,10.33
2022-09-09T06:37:11.514Z,8.53
2022-09-09T06:39:39.851Z,17.17
2022-09-09T06:42:09.928Z,15.53
2022-09-09T06:44:38.439Z,13.17
2022-09-09T06:47:07.015Z,9.43
2022-09-09T06:49:36.021Z,6.40
2022-09-09T06:52:06.087Z,10.63
2022-09-09T06:54:34.736Z,11.03
2022-09-09T06:57:20.835Z,9.50
2022-09-09T06:59:52.477Z,9.00
2022-09-09T07:02:21.115Z,10.57
2022-09-09T07:04:51.377Z,13.90
2022-09-09T07:07:21.039Z,17.10
2022-09-09T07:09:50.226Z,9.23
2022-09-09T07:12:18.706Z,10.63
2022-09-09T07:14:47.370Z,9.03
2022-09-09T07:17:15.673Z,9.03
2022-09-09T07:19:44.204Z,15.67
2022-09-09T07:22:12.634Z,12.30
2022-09-09T07:24:42.315Z,12.53
2022-09-09T07:27:10.692Z,13.53
2022-09-09T07:29:39.359Z,15.40
2022-09-09T07:32:07.929Z,15.47
2022-09-09T07:34:36.507Z,12.27
2022-09-09T07:37:04.799Z,13.20
2022-09-09T07:39:33.423Z,12.03
2022-09-09T07:42:03.199Z,13.97
2022-09-09T07:44:33.303Z,12.97
2022-09-09T07:47:01.585Z,11.93
2022-09-09T07:49:32.856Z,13.60
2022-09-09T07:52:01.589Z,12.40
2022-09-09T07:54:30.134Z,9.10
2022-09-09T07:57:00.301Z,10.77
2022-09-09T07:59:30.964Z,11.23
2022-09-09T08:01:59.548Z,8.60
2022-09-09T08:04:29.195Z,8.87
2022-09-09T08:06:58.274Z,9.23
2022-09-09T08:09:28.150Z,7.73
2022-09-09T08:11:57.351Z,14.70
2022-09-09T08:14:25.743Z,14.60
2022-09-09T08:16:55.650Z,13.53
2022-09-09T08:19:24.507Z,10.80
2022-09-09T08:21:52.870Z,9.80
2022-09-09T08:24:21.211Z,11.13
2022-09-09T08:26:50.611Z,7.60
2022-09-09T08:29:18.946Z,12.43
2022-09-09T08:31:47.968Z,14.20
2022-09-09T08:34:18.601Z,12.33
2022-09-09T08:36:47.435Z,14.17
2022-09-09T08:39:16.077Z,14.30
2022-09-09T08:41:52.134Z,10.17
2022-09-09T08:44:22.770Z,10.57
2022-09-09T08:46:53.343Z,12.70
2022-09-09T08:49:26.911Z,8.93
2022-09-09T08:51:56.305Z,10.97
2022-09-09T08:54:48.466Z,10.23
2022-09-09T08:57:15.053Z,9.97
2022-09-09T08:59:43.379Z,8.17
2022-09-09T09:02:16.848Z,13.13
2022-09-09T09:04:50.973Z,10.53
2022-09-09T09:07:22.170Z,13.50
2022-09-09T09:09:53.863Z,8.67
2022-09-09T09:12:22.867Z,9.37
2022-09-09T09:14:51.508Z,9.50
2022-09-09T09:17:20.173Z,15.07
2022-09-09T09:19:50.679Z,10.57
2022-09-09T09:22:21.106Z,10.00
2022-09-09T09:24:52.832Z,7.23
2022-09-09T09:27:24.441Z,8.27
2022-09-09T09:30:21.097Z,10.60
2022-09-09T09:32:42.149Z,10.57
2022-09-09T09:35:14.925Z,12.43
2022-09-09T09:40:35.500Z,9.30
2022-09-09T09:43:08.996Z,8.33
2022-09-09T09:45:43.959Z,9.93
2022-09-09T09:48:15.760Z,9.90
2022-09-09T09:50:51.396Z,8.67
2022-09-09T09:53:21.921Z,6.63
2022-09-09T09:55:51.588Z,7.03
2022-09-09T09:58:20.003Z,9.63
2022-09-09T10:00:52.148Z,8.37
2022-09-09T10:03:24.690Z,7.03
2022-09-09T10:05:57.250Z,8.33
2022-09-09T10:08:25.670Z,7.73
2022-09-09T10:11:02.811Z,6.67
2022-09-09T10:13:33.482Z,8.30
2022-09-09T10:16:05.668Z,9.27
2022-09-09T10:18:42.729Z,8.10
2022-09-09T10:21:16.644Z,10.80
2022-09-09T10:23:49.266Z,8.47
2022-09-09T10:26:20.934Z,7.57
2022-09-09T10:28:59.183Z,10.23
2022-09-09T10:31:31.000Z,11.90
2022-09-09T10:34:00.345Z,10.43
2022-09-09T10:36:30.796Z,11.03
2022-09-09T10:39:01.257Z,8.07
2022-09-09T10:41:35.519Z,10.93
2022-09-09T10:44:07.577Z,10.77
2022-09-09T10:46:38.103Z,10.87
2022-09-09T10:49:09.904Z,8.93
2022-09-09T10:51:43.186Z,12.80
2022-09-09T10:54:18.279Z,11.67
2022-09-09T10:56:47.162Z,11.60
2022-09-09T10:59:16.660Z,11.87
2022-09-09T11:01:46.041Z,8.00
2022-09-09T11:04:16.191Z,7.53
2022-09-09T11:06:47.954Z,8.63
2022-09-09T11:09:18.096Z,7.80
2022-09-09T11:11:47.724Z,8.07
2022-09-09T11:14:18.404Z,8.43
2022-09-09T11:16:49.204Z,7.87
2022-09-09T11:19:19.541Z,9.87
2022-09-09T11:21:50.457Z,12.90
2022-09-09T11:24:19.516Z,8.00
2022-09-09T11:26:48.213Z,10.00
2022-09-09T11:29:45.128Z,14.73
2022-09-09T11:32:17.644Z,15.57
2022-09-09T11:34:50.563Z,10.13
2022-09-09T11:37:39.980Z,8.33
2022-09-09T11:40:17.194Z,9.77
2022-09-09T11:42:45.586Z,9.83
2022-09-09T11:45:20.217Z,12.43
2022-09-09T11:47:54.261Z,7.00
2022-09-09T11:50:32.884Z,7.80
2022-09-09T11:53:21.974Z,9.47
2022-09-09T11:55:51.823Z,6.37
2022-09-09T11:58:21.585Z,9.47
2022-09-09T12:00:51.139Z,9.07
2022-09-09T12:03:35.594Z,9.37
2022-09-09T12:06:12.071Z,9.93
2022-09-09T12:08:40.767Z,8.90
2022-09-09T12:11:10.637Z,6.50
2022-09-09T12:13:39.057Z,9.33
2022-09-09T12:16:07.569Z,8.63
2022-09-09T12:18:36.739Z,5.00
2022-09-09T12:21:06.925Z,8.87
2022-09-09T12:23:38.765Z,7.83
2022-09-09T12:26:23.131Z,8.20
2022-09-09T12:28:54.999Z,5.60
2022-09-09T12:31:24.657Z,9.10
2022-09-09T12:33:53.955Z,5.73
2022-09-09T12:36:22.708Z,7.07
2022-09-09T12:38:52.511Z,6.77
2022-09-09T12:41:25.744Z,6.27
2022-09-09T12:43:55.735Z,6.27
2022-09-09T12:46:27.327Z,6.70
2022-09-09T12:48:56.707Z,3.13
2022-09-09T12:51:27.384Z,4.30
2022-09-09T12:53:55.767Z,5.50
2022-09-09T12:56:27.641Z,8.00
2022-09-09T12:58:56.511Z,3.53
2022-09-09T13:01:26.174Z,5.83
2022-09-09T13:03:54.669Z,2.57
2022-09-09T13:06:28.775Z,5.33
2022-09-09T13:08:58.093Z,3.63
2022-09-09T13:11:29.323Z,3.77
2022-09-09T13:13:58.006Z,7.63
2022-09-09T13:16:31.488Z,7.00
2022-09-09T13:19:00.230Z,3.73
2022-09-09T13:21:35.536Z,8.63
2022-09-09T13:24:05.451Z,7.80
2022-09-09T13:26:35.241Z,7.57
2022-09-09T13:29:19.905Z,7.47
2022-09-09T13:31:48.436Z,8.20
2022-09-09T13:34:17.087Z,4.07
2022-09-09T13:36:49.741Z,4.83
2022-09-09T13:39:18.704Z,5.67
2022-09-09T13:41:49.557Z,4.00
2022-09-09T13:44:20.476Z,3.67
2022-09-09T13:46:48.801Z,2.43
2022-09-09T13:49:23.723Z,3.63
2022-09-09T13:51:54.625Z,3.53
2022-09-09T13:54:23.829Z,6.27
2022-09-09T13:56:54.724Z,3.87
2022-09-09T13:59:23.790Z,5.00
2022-09-09T14:01:53.529Z,6.83
2022-09-09T14:04:22.773Z,5.60
2022-09-09T14:06:51.169Z,4.47
2022-09-09T14:09:19.853Z,5.77
2022-09-09T14:11:48.431Z,7.63
2022-09-09T14:14:18.056Z,9.47
2022-09-09T14:16:46.606Z,5.97
2022-09-09T14:19:14.961Z,6.63
2022-09-09T14:21:46.151Z,6.97
2022-09-09T14:24:15.146Z,10.63
2022-09-09T14:26:43.548Z,10.57
2022-09-09T14:29:11.889Z,6.87
2022-09-09T14:31:41.652Z,9.07
2022-09-09T14:34:11.004Z,5.27
2022-09-09T14:36:39.409Z,6.83
2022-09-09T14:39:07.894Z,7.63
2022-09-09T14:41:36.360Z,5.90
2022-09-09T14:44:04.929Z,7.10
2022-09-09T14:46:33.469Z,12.63
2022-09-09T14:49:03.260Z,8.27
2022-09-09T14:51:31.826Z,8.03
2022-09-09T14:54:00.863Z,7.80
2022-09-09T14:56:30.638Z,7.20
2022-09-09T14:58:59.525Z,9.67
2022-09-09T15:01:29.161Z,6.10
2022-09-09T15:03:59.047Z,9.43
2022-09-09T15:06:30.093Z,7.20
2022-09-09T15:08:59.914Z,5.93
2022-09-09T15:11:28.893Z,6.50
2022-09-09T15:13:57.503Z,7.40
2022-09-09T15:16:27.743Z,4.73
2022-09-09T15:18:56.696Z,7.70
2022-09-09T15:21:25.571Z,10.90
2022-09-09T15:23:55.824Z,9.07
2022-09-09T15:26:24.371Z,5.17
2022-09-09T15:28:52.718Z,6.83
2022-09-09T15:31:21.721Z,6.93
2022-09-09T15:33:50.432Z,10.43
2022-09-09T15:36:19.365Z,12.33
2022-09-09T15:38:48.582Z,10.63
2022-09-09T15:41:18.555Z,8.93
2022-09-09T15:43:47.764Z,12.73
2022-09-09T15:46:27.108Z,8.70
2022-09-09T15:48:56.486Z,9.30
2022-09-09T15:51:41.684Z,9.03
2022-09-09T15:54:10.680Z,13.37
2022-09-09T15:56:40.620Z,15.30
2022-09-09T15:59:09.076Z,13.33
2022-09-09T16:01:37.488Z,10.33
2022-09-09T16:04:06.017Z,9.93
2022-09-09T16:06:34.549Z,16.23
2022-09-09T16:09:03.100Z,11.17
2022-09-09T16:11:32.124Z,15.63
2022-09-09T16:14:02.075Z,14.37
2022-09-09T16:16:32.145Z,13.80
2022-09-09T16:19:01.125Z,15.27
2022-09-09T16:21:31.152Z,15.87
2022-09-09T16:24:03.207Z,12.87
2022-09-09T16:26:32.027Z,14.80
2022-09-09T16:29:02.368Z,15.93
2022-09-09T16:31:30.929Z,11.67
2022-09-09T16:33:59.741Z,9.90
2022-09-09T16:36:28.703Z,10.93
2022-09-09T16:38:58.493Z,7.57
2022-09-09T16:41:26.958Z,9.77
2022-09-09T16:43:56.502Z,11.53
2022-09-09T16:46:26.412Z,9.33
2022-09-09T16:48:55.832Z,8.07
2022-09-09T16:51:25.548Z,8.07
2022-09-09T16:53:54.015Z,4.97
2022-09-09T16:56:25.509Z,8.43
2022-09-09T16:58:55.031Z,6.13
2022-09-09T17:01:23.592Z,6.03
2022-09-09T17:04:00.654Z,9.87
2022-09-09T17:06:29.923Z,7.17
2022-09-09T17:08:58.428Z,6.17
2022-09-09T17:11:26.891Z,7.27
2022-09-09T17:13:55.608Z,6.63
2022-09-09T17:16:24.530Z,8.80
2022-09-09T17:18:53.084Z,10.47
2022-09-09T17:21:23.068Z,6.07
2022-09-09T17:23:51.467Z,6.73
2022-09-09T17:26:20.358Z,8.60
2022-09-09T17:28:48.881Z,7.93
2022-09-09T17:31:17.586Z,7.63
2022-09-09T17:33:47.050Z,7.40
2022-09-09T17:36:16.092Z,7.30
2022-09-09T17:38:45.943Z,11.70
2022-09-09T17:41:14.820Z,7.83
2022-09-09T17:43:43.479Z,10.20
2022-09-09T17:46:12.339Z,8.17
2022-09-09T17:48:40.875Z,9.73
2022-09-09T17:51:10.055Z,9.53
2022-09-09T17:53:40.082Z,8.00
2022-09-09T17:56:10.430Z,10.37
2022-09-09T17:58:39.067Z,9.40
2022-09-09T18:01:07.478Z,9.60
2022-09-09T18:03:37.133Z,9.13
2022-09-09T18:06:05.930Z,9.37
2022-09-09T18:08:36.847Z,12.90
2022-09-09T18:11:05.602Z,12.43
2022-09-09T18:13:35.954Z,7.10
2022-09-09T18:16:04.758Z,9.17
2022-09-09T18:18:33.705Z,12.87
2022-09-09T18:21:02.362Z,10.63
2022-09-09T18:23:31.152Z,12.07
2022-09-09T18:26:00.151Z,15.97
2022-09-09T18:28:28.646Z,13.57
2022-09-09T18:30:58.401Z,13.90
2022-09-09T18:33:26.939Z,12.60
2022-09-09T18:35:56.731Z,18.57
2022-09-09T18:38:25.695Z,9.20
2022-09-09T18:40:54.324Z,14.20
2022-09-09T18:43:22.826Z,12.53
2022-09-09T18:45:51.250Z,14.70
2022-09-09T18:48:21.202Z,17.67
2022-09-09T18:50:49.719Z,15.90
2022-09-09T18:53:18.025Z,17.67
2022-09-09T18:55:46.410Z,21.03
2022-09-09T18:58:14.912Z,12.80
2022-09-09T19:00:43.285Z,13.67
2022-09-09T19:03:11.676Z,16.27
2022-09-09T19:05:41.549Z,11.23
2022-09-09T19:08:10.013Z,12.23
2022-09-09T19:10:38.410Z,13.10
2022-09-09T19:13:07.029Z,15.60
2022-09-09T19:15:37.546Z,17.70
2022-09-09T19:18:06.109Z,11.53
2022-09-09T19:20:34.677Z,13.97
2022-09-09T19:23:04.651Z,10.50
2022-09-09T19:25:37.442Z,14.47
2022-09-09T19:28:06.166Z,16.50
2022-09-09T19:30:37.616Z,10.33
2022-09-09T19:33:06.825Z,7.90
2022-09-09T19:35:35.767Z,11.80
2022-09-09T19:38:05.505Z,13.10
2022-09-09T19:40:35.487Z,10.63
2022-09-09T19:43:03.860Z,12.17
2022-09-09T19:45:32.643Z,8.43
2022-09-09T19:48:01.309Z,8.90
2022-09-09T19:50:29.781Z,10.23
2022-09-09T19:52:58.135Z,7.87
2022-09-09T19:55:28.937Z,12.13
2022-09-09T19:57:57.437Z,11.13
2022-09-09T20:00:26.236Z,11.83
2022-09-09T20:03:17.781Z,8.90
2022-09-09T20:05:43.507Z,10.00
2022-09-09T20:08:11.788Z,12.60
2022-09-09T20:10:41.473Z,6.87
2022-09-09T20:13:09.839Z,7.13
2022-09-09T20:15:38.358Z,7.03
2022-09-09T20:18:06.941Z,6.77
2022-09-09T20:20:35.458Z,5.90
2022-09-09T20:23:04.037Z,12.67
2022-09-09T20:25:32.567Z,7.67
2022-09-09T20:28:02.423Z,13.00
2022-09-09T20:30:31.057Z,6.47
2022-09-09T20:33:00.154Z,12.13
2022-09-09T20:35:31.353Z,11.97
2022-09-09T20:38:00.871Z,11.40
2022-09-09T20:40:32.865Z,12.30
2022-09-09T20:43:03.305Z,10.33
2022-09-09T20:45:32.241Z,12.80
2022-09-09T20:48:00.607Z,15.73
2022-09-09T20:50:29.090Z,14.13
2022-09-09T20:52:57.520Z,17.50
2022-09-09T20:55:27.198Z,13.80
2022-09-09T20:57:58.758Z,8.90
2022-09-09T21:00:30.157Z,11.37
2022-09-09T21:02:58.505Z,14.83
2022-09-09T21:05:27.889Z,12.50
2022-09-09T21:07:56.905Z,13.93
2022-09-09T21:10:26.405Z,12.23
2022-09-09T21:12:54.987Z,11.03
2022-09-09T21:15:24.474Z,11.87
2022-09-09T21:17:54.594Z,12.50
2022-09-09T21:20:23.136Z,16.87
2022-09-09T21:22:51.616Z,12.80
2022-09-09T21:25:20.148Z,9.97
2022-09-09T21:27:48.822Z,10.87
2022-09-09T21:30:17.311Z,14.27
2022-09-09T21:32:45.656Z,9.33
2022-09-09T21:35:16.734Z,12.60
2022-09-09T21:37:45.440Z,13.47
2022-09-09T21:40:13.940Z,13.77
2022-09-09T21:42:42.251Z,17.50
2022-09-09T21:45:11.235Z,11.13
2022-09-09T21:47:39.693Z,14.43
2022-09-09T21:50:08.609Z,16.27
2022-09-09T21:52:38.316Z,9.63
2022-09-09T21:55:07.185Z,11.27
2022-09-09T21:57:35.633Z,15.40
2022-09-09T22:00:05.297Z,11.57
2022-09-09T22:02:37.353Z,12.67
2022-09-09T22:05:06.496Z,14.73
2022-09-09T22:07:35.188Z,17.30
2022-09-09T22:10:05.315Z,15.33
2022-09-09T22:12:36.692Z,18.23
2022-09-09T22:15:08.983Z,13.07
2022-09-09T22:17:37.764Z,15.17
2022-09-09T22:20:07.424Z,11.70
2022-09-09T22:22:35.935Z,14.90
2022-09-09T22:25:06.053Z,14.57
2022-09-09T22:27:34.413Z,14.20
2022-09-09T22:30:03.043Z,13.33
2022-09-09T22:32:31.928Z,10.83
2022-09-09T22:35:00.717Z,11.97
2022-09-09T22:37:29.000Z,15.47
2022-09-09T22:39:58.246Z,14.80
2022-09-09T22:42:28.113Z,14.30
2022-09-09T22:44:56.612Z,15.57
2022-09-09T22:47:25.177Z,28.83
2022-09-09T22:49:53.882Z,13.50
2022-09-09T22:52:22.550Z,12.63
2022-09-09T22:54:52.163Z,6.83
2022-09-09T22:57:20.534Z,10.53
2022-09-09T22:59:50.389Z,8.00
2022-09-09T23:02:20.688Z,13.70
2022-09-09T23:04:49.206Z,13.33
2022-09-09T23:07:22.976Z,13.37
2022-09-09T23:09:51.763Z,13.00
2022-09-09T23:12:22.685Z,11.33
2022-09-09T23:14:54.264Z,17.50
2022-09-09T23:17:22.979Z,10.20
2022-09-09T23:19:53.331Z,7.97
2022-09-09T23:22:22.606Z,9.87
2022-09-09T23:24:54.129Z,11.03
2022-09-09T23:27:22.753Z,10.73
2022-09-09T23:29:52.642Z,7.43
2022-09-09T23:32:21.164Z,8.83
2022-09-09T23:34:49.989Z,8.73
2022-09-09T23:37:19.098Z,12.27
2022-09-09T23:39:48.400Z,6.67
2022-09-09T23:42:16.846Z,6.97
2022-09-09T23:44:45.636Z,6.97
2022-09-09T23:47:15.730Z,7.63
2022-09-09T23:49:44.539Z,9.17
2022-09-09T23:52:13.509Z,9.03
2022-09-09T23:54:42.099Z,8.33
2022-09-09T23:57:12.015Z,9.50
2022-09-09T23:59:40.409Z,11.77
